Time;durP1;ratioP1;P1;durP2;ratioP2;P2;SDS_P1;SDS_P2;PMS_P1;PMS_P2;Temp;Humidity;BMP_temperature;BMP_pressure;BME280_temperature;BME280_humidity;BME280_pressure;Samples;Min_cycle;Max_cycle;Signal;HPM_P1;HPM_P2
2021/12/14 05:14:52;;;;;;;;;;;;;;;2.70;88.98;98085.25;4216842;27;10384;-74
2021/12/14 05:17:06;;;;;;;;;;;;;;;2.71;88.94;98089.53;4199058;28;5792;-74
2021/12/14 05:19:11;;;;;;;;;;;;;;;2.72;88.66;98083.41;4215074;28;5630;-74
2021/12/14 05:21:25;;;;;;;;;;;;;;;2.72;88.51;98096.44;4206013;28;5726;-73
2021/12/14 05:23:33;;;;;;;;;;;;;;;2.76;88.23;98091.81;4200907;28;5646;-73
2021/12/14 05:25:37;;;;;;;;;;;;;;;2.74;88.42;98091.94;4206013;28;5689;-73
2021/12/14 05:27:52;;;;;;;;;;;;;;;2.72;88.64;98093.84;4215460;28;5869;-71
2021/12/14 05:30:01;;;;;;;;;;;;;;;2.75;88.54;98091.00;4211798;28;5838;-73
2021/12/14 05:32:04;;;;;;;;;;;;;;;2.77;88.73;98104.78;4214549;28;5697;-73
2021/12/14 05:34:08;;;;;;;;;;;;;;;2.78;88.87;98111.66;4215191;28;5643;-72
2021/12/14 05:36:14;;;;;;;;;;;;;;;2.72;89.29;98106.91;4201193;28;5102;-72
2021/12/14 05:38:23;;;;;;;;;;;;;;;2.66;89.84;98109.94;4216604;28;5678;-71
2021/12/14 05:40:44;;;;;;;;;;;;;;;2.83;89.03;98122.63;4212217;28;5955;-72
2021/12/14 05:45:12;;;;;;;;;;;;;;;2.89;88.84;98111.69;4220046;28;5702;-71
2021/12/14 05:47:18;;;;;;;;;;;;;;;2.92;88.76;98114.06;4212543;28;5722;-71
2021/12/14 05:49:25;;;;;;;;;;;;;;;2.87;89.13;98116.22;4199959;28;6631;-72
2021/12/14 05:51:31;;;;;;;;;;;;;;;2.99;88.74;98098.78;4202006;28;5943;-73
2021/12/14 05:53:39;;;;;;;;;;;;;;;3.02;88.64;98100.34;4202851;28;6868;-71
2021/12/14 05:55:40;;;;;;;;;;;;;;;3.02;88.65;98101.16;4207350;28;6369;-72
2021/12/14 05:57:42;;;;;;;;;;;;;;;3.03;88.62;98104.63;4204730;28;5741;-72
2021/12/14 05:59:44;;;;;;;;;;;;;;;3.05;88.92;98110.56;4205806;28;5725;-73
2021/12/14 06:01:47;;;;;;;;;;;;;;;3.01;89.12;98106.53;4207113;28;5715;-73
2021/12/14 06:03:55;;;;;;;;;;;;;;;3.11;88.67;98104.88;4198959;28;5831;-73
2021/12/14 06:06:00;;;;;;;;;;;;;;;3.12;88.64;98104.78;4213351;28;5682;-73
2021/12/14 06:08:02;;;;;;;;;;;;;;;3.06;88.92;98109.59;4215045;28;5693;-73
2021/12/14 06:10:04;;;;;;;;;;;;;;;3.04;88.77;98111.50;4205863;28;5919;-73
2021/12/14 06:12:23;;;;;;;;;;;;;;;3.02;89.12;98109.00;4210966;28;5752;-73
2021/12/14 06:14:28;;;;;;;;;;;;;;;2.97;89.37;98115.53;4214159;28;5689;-73
2021/12/14 06:16:33;;;;;;;;;;;;;;;2.98;89.56;98117.19;4201098;28;5857;-74
2021/12/14 06:18:35;;;;;;;;;;;;;;;2.89;90.11;98116.91;4217688;28;5778;-73
2021/12/14 06:20:37;;;;;;;;;;;;;;;2.88;89.97;98117.03;4205835;28;5792;-73
2021/12/14 06:22:40;;;;;;;;;;;;;;;2.91;89.72;98111.59;4204918;28;5754;-73
2021/12/14 06:24:45;;;;;;;;;;;;;;;2.96;89.55;98108.66;4204172;28;5693;-73
2021/12/14 06:26:50;;;;;;;;;;;;;;;2.96;89.66;98100.81;4201850;28;5734;-73
2021/12/14 06:29:03;;;;;;;;;;;;;;;3.00;89.77;98102.25;4204058;28;5760;-73
2021/12/14 06:31:05;;;;;;;;;;;;;;;2.99;89.79;98103.19;4202603;28;5753;-73
2021/12/14 06:33:09;;;;;;;;;;;;;;;3.00;89.70;98104.84;4202469;28;5754;-72
2021/12/14 06:35:20;;;;;;;;;;;;;;;2.95;89.95;98107.00;4203952;28;6349;-73
2021/12/14 06:40:07;;;;;;;;;;;;;;;2.85;90.57;98112.88;4207004;28;5697;-73
2021/12/14 06:42:09;;;;;;;;;;;;;;;2.87;90.29;98110.16;4202391;28;5753;-72
2021/12/14 06:44:10;;;;;;;;;;;;;;;2.88;90.13;98102.19;4202878;28;5738;-72
2021/12/14 06:46:19;;;;;;;;;;;;;;;2.89;90.16;98103.88;4201287;28;5739;-72
2021/12/14 06:48:25;;;;;;;;;;;;;;;2.98;89.72;98102.34;4212800;28;5713;-72
2021/12/14 06:50:33;;;;;;;;;;;;;;;2.93;90.55;98096.63;4219422;28;5877;-72
2021/12/14 06:52:35;;;;;;;;;;;;;;;2.93;90.61;98094.84;4210137;28;5709;-72
2021/12/14 06:54:36;;;;;;;;;;;;;;;2.98;90.11;98102.34;4209157;28;6822;-72
2021/12/14 06:56:39;;;;;;;;;;;;;;;3.02;89.77;98092.50;4204980;28;5895;-72
2021/12/14 06:59:09;;;;;;;;;;;;;;;3.02;89.75;98087.28;4208991;28;5697;-72
2021/12/14 07:01:21;;;;;;;;;;;;;;;3.06;89.43;98088.69;4219270;28;5722;-72
2021/12/14 07:03:23;;;;;;;;;;;;;;;3.11;89.60;98094.44;4200602;28;5818;-72
2021/12/14 07:05:27;;;;;;;;;;;;;;;3.11;89.50;98097.03;4213604;28;5800;-71
2021/12/14 07:07:29;;;;;;;;;;;;;;;3.13;89.44;98100.38;4204967;28;5780;-73
2021/12/14 07:09:33;;;;;;;;;;;;;;;3.11;89.60;98094.44;4203031;28;5728;-73
2021/12/14 07:11:37;;;;;;;;;;;;;;;3.08;89.93;98102.50;4207502;28;5724;-73
2021/12/14 07:13:41;;;;;;;;;;;;;;;3.04;89.72;98107.09;4218837;28;5709;-73
2021/12/14 07:15:43;;;;;;;;;;;;;;;3.01;89.99;98096.06;4201209;28;5780;-73
2021/12/14 07:17:53;;;;;;;;;;;;;;;2.97;90.24;98105.09;4219290;28;5679;-71
2021/12/14 07:20:04;;;;;;;;;;;;;;;2.96;90.33;98104.25;4212770;28;5705;-71
2021/12/14 07:22:06;;;;;;;;;;;;;;;2.91;90.94;98099.34;4202706;28;5753;-72
2021/12/14 07:24:22;;;;;;;;;;;;;;;2.88;90.83;98093.53;4187195;28;5984;-71
2021/12/14 07:26:24;;;;;;;;;;;;;;;2.95;90.44;98092.16;4184556;28;5823;-72
2021/12/14 07:28:29;;;;;;;;;;;;;;;2.98;90.40;98093.69;4201307;28;6536;-72
2021/12/14 07:30:37;;;;;;;;;;;;;;;2.99;90.22;98093.56;4211686;28;5749;-73
2021/12/14 07:32:44;;;;;;;;;;;;;;;3.01;90.19;98099.50;4204264;28;5725;-72
2021/12/14 07:34:45;;;;;;;;;;;;;;;2.99;90.39;98105.81;4202883;28;5813;-72
2021/12/14 07:36:47;;;;;;;;;;;;;;;2.95;90.45;98104.38;4201665;28;5735;-72
2021/12/14 07:38:50;;;;;;;;;;;;;;;2.95;90.50;98104.38;4202108;28;5704;-72
2021/12/14 07:41:18;;;;;;;;;;;;;;;3.02;90.01;98105.56;4214102;28;5836;-71
2021/12/14 07:43:25;;;;;;;;;;;;;;;3.02;90.10;98118.63;4211282;28;5762;-71
2021/12/14 07:45:27;;;;;;;;;;;;;;;2.98;90.69;98117.19;4204606;28;5710;-73
2021/12/14 07:47:28;;;;;;;;;;;;;;;2.96;90.22;98113.88;4205532;28;5826;-72
2021/12/14 07:49:35;;;;;;;;;;;;;;;2.93;90.58;98122.75;4184667;28;5795;-72
2021/12/14 07:51:40;;;;;;;;;;;;;;;2.92;90.61;98119.31;4199153;28;5734;-72
2021/12/14 07:53:47;;;;;;;;;;;;;;;2.93;90.52;98120.97;4219619;28;5672;-72
2021/12/14 07:55:49;;;;;;;;;;;;;;;3.00;90.09;98115.31;4208422;28;5721;-72
2021/12/14 07:57:50;;;;;;;;;;;;;;;3.02;90.33;98123.84;4218904;28;5696;-72
2021/12/14 07:59:55;;;;;;;;;;;;;;;3.04;90.28;98124.56;4225095;28;5695;-72
2021/12/14 08:02:20;;;;;;;;;;;;;;;3.07;90.15;98127.81;4208298;28;5709;-72
2021/12/14 08:04:32;;;;;;;;;;;;;;;3.05;90.46;98123.63;4190232;28;5761;-72
2021/12/14 08:06:54;;;;;;;;;;;;;;;3.16;89.83;98126.28;4205550;28;5881;-72
2021/12/14 08:08:56;;;;;;;;;;;;;;;3.17;89.64;98122.69;4205962;28;5783;-72
2021/12/14 08:11:29;;;;;;;;;;;;;;;3.21;89.54;98124.16;4202584;28;5701;-72
2021/12/14 08:13:41;;;;;;;;;;;;;;;3.29;89.22;98127.03;4202162;28;5662;-72
2021/12/14 08:15:50;;;;;;;;;;;;;;;3.29;89.29;98124.44;4202678;28;5784;-72
2021/12/14 08:18:09;;;;;;;;;;;;;;;3.27;89.26;98128.91;4202053;28;5737;-72
2021/12/14 08:20:20;;;;;;;;;;;;;;;3.28;88.90;98130.56;4204729;28;5697;-72
2021/12/14 08:22:32;;;;;;;;;;;;;;;3.37;88.78;98134.28;4202147;28;5794;-72
2021/12/14 08:24:34;;;;;;;;;;;;;;;3.34;88.65;98127.53;4208039;28;5731;-72
2021/12/14 08:26:41;;;;;;;;;;;;;;;3.23;89.13;98119.66;4204899;28;5996;-72
2021/12/14 08:29:06;;;;;;;;;;;;;;;3.38;88.52;98126.31;4194678;28;5779;-72
2021/12/14 08:31:08;;;;;;;;;;;;;;;3.46;88.51;98113.50;4205201;28;5937;-72
2021/12/14 08:33:19;;;;;;;;;;;;;;;3.49;88.03;98113.28;4204296;28;5885;-72
2021/12/14 08:35:21;;;;;;;;;;;;;;;3.34;88.63;98111.00;4205928;28;6543;-72
2021/12/14 08:37:28;;;;;;;;;;;;;;;3.37;88.74;98108.16;4216126;28;5054;-72
2021/12/14 08:39:38;;;;;;;;;;;;;;;3.47;88.30;98112.56;4202597;28;7780;-72
2021/12/14 08:41:48;;;;;;;;;;;;;;;3.46;87.77;98129.19;4201429;28;6443;-72
2021/12/14 08:43:52;;;;;;;;;;;;;;;3.42;87.97;98127.78;4197211;28;5765;-74
2021/12/14 08:46:02;;;;;;;;;;;;;;;3.30;87.73;98149.63;4203251;28;5672;-66
2021/12/14 08:48:07;;;;;;;;;;;;;;;3.22;87.44;98151.97;4201993;28;5708;-67
2021/12/14 08:50:12;;;;;;;;;;;;;;;3.18;87.67;98146.13;4200994;28;5946;-68
2021/12/14 08:52:14;;;;;;;;;;;;;;;3.22;87.33;98136.28;4213361;28;5672;-74
2021/12/14 08:54:29;;;;;;;;;;;;;;;3.26;87.15;98136.88;4199539;28;5749;-74
2021/12/14 08:56:37;;;;;;;;;;;;;;;3.33;87.09;98141.53;4207548;28;5900;-74
2021/12/14 08:58:40;;;;;;;;;;;;;;;3.30;87.02;98141.78;4203947;28;5763;-70
2021/12/14 09:00:49;;;;;;;;;;;;;;;3.14;88.53;98141.22;4210962;28;5746;-70
2021/12/14 09:02:53;;;;;;;;;;;;;;;3.19;88.38;98139.97;4204867;28;5694;-69
2021/12/14 09:05:06;;;;;;;;;;;;;;;3.33;88.06;98138.94;4200063;28;5858;-70
2021/12/14 09:07:15;;;;;;;;;;;;;;;3.36;87.95;98141.28;4203402;28;5700;-71
2021/12/14 09:09:21;;;;;;;;;;;;;;;3.44;87.63;98145.97;4200573;28;5850;-71
2021/12/14 09:11:25;;;;;;;;;;;;;;;3.44;87.46;98146.78;4216623;28;5823;-72
2021/12/14 09:13:29;;;;;;;;;;;;;;;3.36;87.62;98151.75;4209146;28;5705;-71
2021/12/14 09:15:40;;;;;;;;;;;;;;;3.35;87.86;98157.94;4200920;28;6418;-70
2021/12/14 09:17:42;;;;;;;;;;;;;;;3.32;87.85;98163.41;4199913;28;5750;-71
2021/12/14 09:19:49;;;;;;;;;;;;;;;3.30;88.16;98160.06;4201477;28;5711;-71
2021/12/14 09:21:54;;;;;;;;;;;;;;;3.22;88.56;98157.19;4203937;28;5705;-72
2021/12/14 09:24:01;;;;;;;;;;;;;;;3.30;88.97;98160.06;4203290;28;5713;-73
2021/12/14 09:26:07;;;;;;;;;;;;;;;3.37;88.59;98156.03;4217079;28;5668;-73
2021/12/14 09:28:10;;;;;;;;;;;;;;;3.43;88.25;98166.03;4206445;28;5824;-72
2021/12/14 09:30:14;;;;;;;;;;;;;;;3.45;88.21;98164.13;4216270;28;5671;-71
2021/12/14 09:32:27;;;;;;;;;;;;;;;3.55;88.10;98166.91;4207992;28;6338;-71
2021/12/14 09:34:32;;;;;;;;;;;;;;;3.60;87.83;98166.53;4203341;28;6815;-70
2021/12/14 09:36:35;;;;;;;;;;;;;;;3.55;87.93;98172.13;4217947;28;5688;-70
2021/12/14 09:38:46;;;;;;;;;;;;;;;3.56;87.90;98170.34;4211198;28;5680;-70
2021/12/14 09:40:53;;;;;;;;;;;;;;;3.49;87.78;98169.97;4202157;28;5738;-70
2021/12/14 09:42:56;;;;;;;;;;;;;;;3.47;87.99;98166.63;4200877;28;5767;-70
2021/12/14 09:45:00;;;;;;;;;;;;;;;3.48;88.02;98170.91;4202797;28;5722;-70
2021/12/14 09:47:15;;;;;;;;;;;;;;;3.46;87.51;98165.81;4210077;28;5841;-70
2021/12/14 09:49:18;;;;;;;;;;;;;;;3.46;87.57;98163.19;4199837;28;5742;-70
2021/12/14 09:51:27;;;;;;;;;;;;;;;3.45;87.32;98163.31;4207053;28;5712;-70
2021/12/14 09:53:30;;;;;;;;;;;;;;;3.47;87.31;98164.84;4202937;28;5737;-72
2021/12/14 09:55:36;;;;;;;;;;;;;;;3.40;87.42;98163.66;4205749;28;5673;-71
2021/12/14 09:57:45;;;;;;;;;;;;;;;3.39;87.54;98163.75;4202856;28;5726;-71
2021/12/14 09:59:47;;;;;;;;;;;;;;;3.36;87.60;98162.22;4207560;28;5678;-72
2021/12/14 10:01:54;;;;;;;;;;;;;;;3.35;87.77;98163.16;4203348;28;5780;-72
2021/12/14 10:03:58;;;;;;;;;;;;;;;3.30;88.00;98160.06;4203873;28;5798;-72
2021/12/14 10:06:11;;;;;;;;;;;;;;;3.31;88.19;98151.28;4206287;28;5961;-72
2021/12/14 10:08:19;;;;;;;;;;;;;;;3.32;88.24;98155.56;4202405;28;6915;-72
2021/12/14 10:10:21;;;;;;;;;;;;;;;3.37;87.88;98156.03;4202875;28;5858;-72
2021/12/14 10:14:37;;;;;;;;;;;;;;;3.30;88.12;98149.63;4206192;28;5692;-68
2021/12/14 10:16:40;;;;;;;;;;;;;;;3.37;87.75;98139.50;4217650;28;5895;-69
2021/12/14 10:18:50;;;;;;;;;;;;;;;3.41;87.80;98139.19;4205585;28;5802;-69
2021/12/14 10:21:06;;;;;;;;;;;;;;;3.36;87.76;98143.09;4217585;28;5721;-70
2021/12/14 10:23:09;;;;;;;;;;;;;;;3.32;88.22;98139.88;4197166;28;5782;-69
2021/12/14 10:25:17;;;;;;;;;;;;;;;3.34;88.36;98135.34;4202310;28;5832;-70
2021/12/14 10:27:24;;;;;;;;;;;;;;;3.35;88.11;98139.63;4209183;28;5739;-69
2021/12/14 10:29:29;;;;;;;;;;;;;;;3.39;87.99;98135.84;4203753;28;5707;-71
2021/12/14 10:31:58;;;;;;;;;;;;;;;3.41;87.92;98133.97;4209703;28;5894;-72
2021/12/14 10:34:03;;;;;;;;;;;;;;;3.47;87.55;98133.47;4206218;28;5694;-69
2021/12/14 10:36:17;;;;;;;;;;;;;;;3.50;87.29;98124.56;4207333;28;5983;-73
2021/12/14 10:38:29;;;;;;;;;;;;;;;3.37;86.72;98124.66;4209240;28;5862;-70
2021/12/14 10:43:12;;;;;;;;;;;;;;;3.21;87.21;98124.16;4202884;28;5712;-72
2021/12/14 10:45:15;;;;;;;;;;;;;;;3.21;87.36;98126.78;4203558;28;5705;-70
2021/12/14 10:47:20;;;;;;;;;;;;;;;3.20;87.53;98122.50;4203514;28;5746;-70
2021/12/14 10:49:25;;;;;;;;;;;;;;;3.20;87.52;98127.72;4208758;28;5717;-70
2021/12/14 10:51:31;;;;;;;;;;;;;;;3.19;87.30;98118.22;4214545;28;5758;-70
2021/12/14 10:53:34;;;;;;;;;;;;;;;3.26;86.99;98122.03;4202515;28;5743;-71
2021/12/14 10:55:44;;;;;;;;;;;;;;;3.25;87.33;98109.91;4204483;28;5107;-71
2021/12/14 10:57:47;;;;;;;;;;;;;;;3.39;87.00;98101.84;4218733;28;7142;-72
2021/12/14 10:59:52;;;;;;;;;;;;;;;3.48;86.63;98102.94;4201724;28;5709;-72
2021/12/14 11:01:56;;;;;;;;;;;;;;;3.57;86.27;98110.09;4201416;28;5742;-72
2021/12/14 11:04:08;;;;;;;;;;;;;;;3.62;85.91;98113.16;4211041;28;5714;-70
2021/12/14 11:06:14;;;;;;;;;;;;;;;3.66;85.95;98122.47;4216271;28;5728;-69
2021/12/14 11:08:44;;;;;;;;;;;;;;;3.61;85.96;98116.72;4215817;28;5739;-70
2021/12/14 11:10:41;;;;;;;;;;;;;;;3.55;86.24;98117.22;4219903;28;5676;-70
2021/12/14 11:12:47;;;;;;;;;;;;;;;3.58;86.42;98116.97;4206563;28;5963;-70
2021/12/14 11:14:52;;;;;;;;;;;;;;;3.63;86.49;98116.66;4201279;28;6721;-69
2021/12/14 11:19:34;;;;;;;;;;;;;;;3.55;86.46;98112.00;4205006;28;5720;-70
2021/12/14 11:21:35;;;;;;;;;;;;;;;3.50;86.54;98114.94;4202051;28;5798;-69
2021/12/14 11:23:41;;;;;;;;;;;;;;;3.50;86.48;98114.94;4200766;28;5734;-70
2021/12/14 11:25:49;;;;;;;;;;;;;;;3.55;86.66;98117.22;4203246;28;5781;-71
2021/12/14 11:28:10;;;;;;;;;;;;;;;3.58;86.73;98111.75;4209111;28;5760;-69
2021/12/14 11:30:26;;;;;;;;;;;;;;;3.64;86.37;98113.91;4216923;28;5903;-69
2021/12/14 11:32:27;;;;;;;;;;;;;;;3.61;86.66;98116.72;4204275;28;5678;-71
2021/12/14 11:34:36;;;;;;;;;;;;;;;3.60;86.62;98099.38;4202455;28;5712;-71
2021/12/14 11:36:52;;;;;;;;;;;;;;;3.71;86.50;98094.16;4200139;28;5687;-71
2021/12/14 11:39:23;;;;;;;;;;;;;;;3.77;86.08;98092.88;4202118;28;6202;-72
2021/12/14 11:41:31;;;;;;;;;;;;;;;3.82;85.83;98097.72;4202643;28;5750;-72
2021/12/14 11:43:32;;;;;;;;;;;;;;;3.87;85.60;98095.59;4219432;28;6522;-72
2021/12/14 11:45:37;;;;;;;;;;;;;;;3.84;85.98;98091.41;4200647;28;5818;-72
2021/12/14 11:47:46;;;;;;;;;;;;;;;3.86;86.06;98088.72;4213125;28;5838;-71
2021/12/14 11:50:00;;;;;;;;;;;;;;;3.77;86.59;98087.63;4216137;28;5779;-71
2021/12/14 11:52:02;;;;;;;;;;;;;;;3.78;86.44;98084.06;4209406;28;5816;-70
2021/12/14 11:54:04;;;;;;;;;;;;;;;3.76;86.67;98083.34;4201952;28;5780;-72
2021/12/14 11:56:14;;;;;;;;;;;;;;;3.61;87.55;98084.53;4218331;28;5722;-71
2021/12/14 11:58:36;;;;;;;;;;;;;;;3.70;86.92;98083.81;4216074;28;5767;-71
2021/12/14 12:00:47;;;;;;;;;;;;;;;3.64;86.79;98086.94;4217817;28;5872;-72
2021/12/14 12:02:49;;;;;;;;;;;;;;;3.66;86.71;98082.41;4197171;28;7942;-72
2021/12/14 12:04:51;;;;;;;;;;;;;;;3.63;86.64;98077.41;4199428;28;5766;-72
2021/12/14 12:09:37;;;;;;;;;;;;;;;3.53;87.58;98071.22;4200238;28;5792;-71
2021/12/14 12:11:43;;;;;;;;;;;;;;;3.68;87.01;98059.56;4199379;28;5819;-71
2021/12/14 12:13:47;;;;;;;;;;;;;;;3.77;86.52;98059.69;4197665;28;6507;-71
2021/12/14 12:15:51;;;;;;;;;;;;;;;3.79;86.72;98056.97;4199080;28;5759;-72
2021/12/14 12:17:53;;;;;;;;;;;;;;;3.83;86.63;98060.97;4197883;28;5774;-71
2021/12/14 12:20:06;;;;;;;;;;;;;;;3.86;86.60;98060.75;4198160;28;5771;-71
2021/12/14 12:22:12;;;;;;;;;;;;;;;3.86;86.27;98066.00;4198954;28;5895;-71
2021/12/14 12:24:51;;;;;;;;;;;;;;;3.76;86.48;98062.44;4200023;28;5866;-72
2021/12/14 12:26:53;;;;;;;;;;;;;;;3.76;86.62;98067.66;4140033;28;6075;-71
2021/12/14 12:29:01;;;;;;;;;;;;;;;3.72;86.63;98061.00;4141181;28;5921;-71
2021/12/14 12:31:13;;;;;;;;;;;;;;;3.66;86.95;98059.69;4140114;28;6005;-71
2021/12/14 12:33:30;;;;;;;;;;;;;;;3.65;87.05;98065.06;4124282;28;6078;-71
2021/12/14 12:35:40;;;;;;;;;;;;;;;3.69;87.30;98050.78;4140046;28;5976;-71
2021/12/14 12:37:44;;;;;;;;;;;;;;;3.69;87.23;98051.59;4140160;28;6030;-72
2021/12/14 12:39:50;;;;;;;;;;;;;;;3.70;86.98;98055.88;4143553;28;5933;-72
2021/12/14 12:42:01;;;;;;;;;;;;;;;3.72;87.05;98047.91;4144540;28;5829;-71
2021/12/14 12:44:22;;;;;;;;;;;;;;;3.75;87.23;98037.22;4119196;28;5885;-71
2021/12/14 12:46:41;;;;;;;;;;;;;;;3.78;86.90;98044.84;4117601;28;5892;-71
2021/12/14 12:48:51;;;;;;;;;;;;;;;3.80;86.86;98045.53;4142464;28;6662;-69
2021/12/14 12:50:52;;;;;;;;;;;;;;;3.83;87.17;98040.06;4149329;28;5908;-69
2021/12/14 12:52:55;;;;;;;;;;;;;;;3.90;86.85;98032.56;4149393;28;5841;-69
2021/12/14 12:55:02;;;;;;;;;;;;;;;3.89;86.71;98031.75;4149318;28;5814;-69
2021/12/14 12:57:14;;;;;;;;;;;;;;;3.86;86.93;98032.00;4149265;28;5116;-71
2021/12/14 12:59:49;;;;;;;;;;;;;;;3.91;86.76;98024.59;4148215;28;7814;-70
2021/12/14 13:02:30;;;;;;;;;;;;;;;3.95;86.55;98035.63;4189421;28;5980;-68
2021/12/14 13:04:43;;;;;;;;;;;;;;;3.99;86.69;98032.69;4199854;28;5260;-70
2021/12/14 13:06:45;;;;;;;;;;;;;;;4.05;86.34;98034.78;4202937;28;5735;-72
2021/12/14 13:08:52;;;;;;;;;;;;;;;4.02;86.11;98029.81;4201146;28;5770;-71
2021/12/14 13:11:08;;;;;;;;;;;;;;;3.98;86.07;98033.63;4208441;28;5755;-71
2021/12/14 13:13:18;;;;;;;;;;;;;;;3.94;85.96;98029.56;4202850;28;5784;-70
2021/12/14 13:15:41;;;;;;;;;;;;;;;3.93;86.17;98033.16;4201848;28;5734;-70
2021/12/14 13:17:42;;;;;;;;;;;;;;;3.93;86.24;98034.94;4202040;28;5815;-71
2021/12/14 13:19:59;;;;;;;;;;;;;;;3.91;86.42;98031.63;4201575;28;5693;-71
2021/12/14 13:22:07;;;;;;;;;;;;;;;3.98;86.05;98031.03;4214399;28;5668;-71
2021/12/14 13:24:14;;;;;;;;;;;;;;;3.94;86.06;98023.50;4201989;28;5787;-71
2021/12/14 13:26:33;;;;;;;;;;;;;;;3.96;86.32;98025.06;4206066;28;5824;-69
2021/12/14 13:28:37;;;;;;;;;;;;;;;4.02;86.23;98024.56;4212965;28;5697;-72
2021/12/14 13:30:39;;;;;;;;;;;;;;;4.08;86.06;98020.66;4206132;28;5701;-73
2021/12/14 13:32:43;;;;;;;;;;;;;;;4.10;85.76;98029.22;4196695;28;5755;-73
2021/12/14 13:35:05;;;;;;;;;;;;;;;4.09;85.69;98032.78;4208851;28;5732;-73
2021/12/14 13:37:09;;;;;;;;;;;;;;;4.04;85.85;98025.28;4212537;28;5682;-71
2021/12/14 13:39:13;;;;;;;;;;;;;;;4.04;85.92;98020.03;4204091;28;5686;-72
2021/12/14 13:41:27;;;;;;;;;;;;;;;4.01;85.91;98024.69;4203367;28;5738;-71
2021/12/14 13:43:38;;;;;;;;;;;;;;;4.13;86.10;98028.97;4204734;28;5701;-70
2021/12/14 13:45:59;;;;;;;;;;;;;;;4.16;85.84;98033.09;4209230;28;5804;-70
2021/12/14 13:48:04;;;;;;;;;;;;;;;4.08;85.76;98031.94;4210857;28;5693;-72
2021/12/14 13:50:09;;;;;;;;;;;;;;;3.93;85.95;98038.38;4209854;28;6381;-71
2021/12/14 13:52:14;;;;;;;;;;;;;;;3.93;86.40;98042.78;4216313;28;5838;-72
2021/12/14 13:54:17;;;;;;;;;;;;;;;3.97;86.22;98042.44;4210215;28;5713;-72
2021/12/14 13:56:21;;;;;;;;;;;;;;;3.98;86.31;98038.03;4208374;28;5790;-71
2021/12/14 13:58:26;;;;;;;;;;;;;;;3.96;86.26;98045.97;4211257;28;5936;-72
2021/12/14 14:00:38;;;;;;;;;;;;;;;3.97;85.98;98044.22;4207187;28;5839;-74
2021/12/14 14:02:40;;;;;;;;;;;;;;;3.90;86.08;98033.41;4207463;28;6012;-68
2021/12/14 14:04:42;;;;;;;;;;;;;;;3.89;86.63;98030.91;4210910;28;5697;-69
2021/12/14 14:06:44;;;;;;;;;;;;;;;3.91;86.51;98035.06;4202467;28;5891;-68
2021/12/14 14:08:53;;;;;;;;;;;;;;;3.93;86.45;98037.56;4215438;28;5805;-68
2021/12/14 14:10:58;;;;;;;;;;;;;;;3.92;86.50;98036.72;4214586;28;5663;-68
2021/12/14 14:13:06;;;;;;;;;;;;;;;3.94;86.33;98032.19;4202450;28;5741;-67
2021/12/14 14:15:24;;;;;;;;;;;;;;;3.98;86.59;98031.03;4203370;28;5756;-68
2021/12/14 14:17:28;;;;;;;;;;;;;;;3.96;86.52;98038.13;4209826;28;5697;-68
2021/12/14 14:19:42;;;;;;;;;;;;;;;3.97;86.61;98031.97;4219749;28;5725;-67
2021/12/14 14:21:55;;;;;;;;;;;;;;;3.91;86.50;98035.06;4205829;28;5681;-67
2021/12/14 14:23:57;;;;;;;;;;;;;;;3.94;86.43;98033.97;4203954;28;5801;-67
2021/12/14 14:26:03;;;;;;;;;;;;;;;4.03;86.50;98039.31;4218650;28;5668;-70
2021/12/14 14:28:05;;;;;;;;;;;;;;;4.07;86.39;98040.72;4206223;28;5859;-71
2021/12/14 14:30:25;;;;;;;;;;;;;;;4.07;85.80;98043.34;4206016;28;5693;-73
2021/12/14 14:32:35;;;;;;;;;;;;;;;4.00;86.15;98043.97;4203219;28;5836;-67
2021/12/14 14:34:48;;;;;;;;;;;;;;;3.99;86.34;98043.16;4204361;28;5738;-68
2021/12/14 14:37:13;;;;;;;;;;;;;;;4.02;86.60;98037.66;4212087;28;5723;-70
2021/12/14 14:39:18;;;;;;;;;;;;;;;4.11;86.06;98035.28;4207048;28;5686;-70
2021/12/14 14:41:20;;;;;;;;;;;;;;;4.00;86.70;98036.97;4203220;28;5696;-67
2021/12/14 14:43:22;;;;;;;;;;;;;;;4.17;86.44;98042.63;4212795;28;5686;-67
2021/12/14 14:45:27;;;;;;;;;;;;;;;4.15;86.18;98037.50;4203681;28;5821;-67
2021/12/14 14:47:41;;;;;;;;;;;;;;;4.19;86.09;98041.56;4203379;28;5863;-67
2021/12/14 14:49:42;;;;;;;;;;;;;;;4.12;86.47;98042.16;4215932;28;5069;-67
2021/12/14 14:51:53;;;;;;;;;;;;;;;4.15;86.16;98047.16;4204974;28;7759;-67
2021/12/14 14:53:55;;;;;;;;;;;;;;;4.24;85.82;98051.66;4209824;28;5680;-67
2021/12/14 14:55:59;;;;;;;;;;;;;;;4.18;85.66;98050.34;4206631;28;5717;-66
2021/12/14 14:58:11;;;;;;;;;;;;;;;4.16;86.13;98059.28;4212810;28;6059;-66
2021/12/14 15:00:24;;;;;;;;;;;;;;;4.13;86.03;98049.06;4210673;28;7504;-67
2021/12/14 15:02:37;;;;;;;;;;;;;;;4.13;86.25;98052.50;4211851;28;5693;-69
2021/12/14 15:04:59;;;;;;;;;;;;;;;4.00;85.95;98052.66;4206368;28;5774;-68
2021/12/14 15:07:03;;;;;;;;;;;;;;;3.95;86.31;98057.41;4207337;28;5679;-68
2021/12/14 15:09:04;;;;;;;;;;;;;;;3.92;86.72;98065.50;4207926;28;5720;-70
2021/12/14 15:11:06;;;;;;;;;;;;;;;4.02;86.34;98065.63;4213841;28;5672;-69
2021/12/14 15:13:44;;;;;;;;;;;;;;;4.03;86.52;98059.44;4203052;28;5686;-70
2021/12/14 15:16:25;;;;;;;;;;;;;;;4.11;86.55;98067.50;4206808;28;5862;-69
2021/12/14 15:18:45;;;;;;;;;;;;;;;4.12;86.18;98069.16;4196248;28;5694;-70
2021/12/14 15:20:47;;;;;;;;;;;;;;;3.90;87.28;98080.50;4194736;28;5754;-67
2021/12/14 15:23:01;;;;;;;;;;;;;;;3.83;87.31;98075.84;4212529;28;5785;-66
2021/12/14 15:25:11;;;;;;;;;;;;;;;4.02;86.74;98078.69;4196939;28;6455;-68
2021/12/14 15:27:12;;;;;;;;;;;;;;;4.02;86.54;98071.69;4206288;28;5857;-67
2021/12/14 15:29:28;;;;;;;;;;;;;;;4.04;86.54;98071.56;4205533;28;5791;-69
2021/12/14 15:31:30;;;;;;;;;;;;;;;4.05;86.26;98074.03;4209386;28;5725;-67
2021/12/14 15:33:38;;;;;;;;;;;;;;;4.00;86.32;98070.97;4203181;28;5952;-68
2021/12/14 15:35:51;;;;;;;;;;;;;;;3.99;86.55;98073.72;4207614;28;5701;-71
2021/12/14 15:38:08;;;;;;;;;;;;;;;3.94;86.66;98074.06;4202947;28;5841;-70
2021/12/14 15:40:16;;;;;;;;;;;;;;;3.90;86.75;98070.03;4216872;28;5713;-69
2021/12/14 15:42:20;;;;;;;;;;;;;;;3.89;86.80;98073.59;4209844;28;5911;-72
2021/12/14 15:44:38;;;;;;;;;;;;;;;3.94;86.59;98070.59;4202647;28;5699;-71
2021/12/14 15:46:49;;;;;;;;;;;;;;;4.00;86.63;98081.44;4201575;28;5756;-73
2021/12/14 15:49:04;;;;;;;;;;;;;;;3.98;86.91;98080.72;4204923;28;5750;-72
2021/12/14 15:51:31;;;;;;;;;;;;;;;3.90;87.11;98075.25;4209067;28;5711;-72
2021/12/14 15:53:39;;;;;;;;;;;;;;;3.88;86.86;98071.09;4205439;28;5665;-72
2021/12/14 15:55:41;;;;;;;;;;;;;;;3.88;87.16;98076.34;4218143;28;5728;-71
2021/12/14 15:57:44;;;;;;;;;;;;;;;3.90;87.07;98077.03;4211990;28;5698;-71
2021/12/14 15:59:53;;;;;;;;;;;;;;;3.82;87.07;98075.03;4211452;28;5766;-72
2021/12/14 16:02:09;;;;;;;;;;;;;;;3.79;87.16;98075.25;4203097;28;5690;-71
2021/12/14 16:04:14;;;;;;;;;;;;;;;3.75;87.47;98073.84;4207852;28;5632;-70
2021/12/14 16:06:16;;;;;;;;;;;;;;;3.69;87.38;98082.16;4210882;28;6688;-71
2021/12/14 16:08:20;;;;;;;;;;;;;;;3.70;87.31;98079.41;4213299;28;5686;-71
2021/12/14 16:10:28;;;;;;;;;;;;;;;3.75;87.26;98081.69;4222662;28;5808;-70
2021/12/14 16:16:55;;;;;;;;;;;;;;;3.89;87.03;98094.53;4204728;28;5693;-70
2021/12/14 16:18:56;;;;;;;;;;;;;;;3.91;86.92;98097.03;4213983;28;5797;-70
2021/12/14 16:20:59;;;;;;;;;;;;;;;3.89;86.70;98098.94;4202085;28;5704;-71
2021/12/14 16:23:09;;;;;;;;;;;;;;;3.92;86.54;98096.91;4208699;28;5693;-71
2021/12/14 16:25:14;;;;;;;;;;;;;;;3.89;86.78;98101.53;4200766;28;5798;-71
2021/12/14 16:27:24;;;;;;;;;;;;;;;3.81;87.01;98099.50;4211195;28;5089;-71
2021/12/14 16:29:33;;;;;;;;;;;;;;;3.82;86.95;98098.56;4202098;28;5685;-71
2021/12/14 16:31:42;;;;;;;;;;;;;;;3.80;87.07;98103.09;4208410;28;5683;-71
2021/12/14 16:33:51;;;;;;;;;;;;;;;3.82;87.16;98111.63;4210065;28;5885;-70
2021/12/14 16:36:15;;;;;;;;;;;;;;;3.85;86.96;98103.56;4202401;28;5693;-71
2021/12/14 16:38:20;;;;;;;;;;;;;;;3.87;87.01;98095.59;4206790;28;5725;-71
2021/12/14 16:40:22;;;;;;;;;;;;;;;3.93;87.06;98105.56;4205230;28;5870;-71
2021/12/14 16:42:24;;;;;;;;;;;;;;;3.96;86.89;98111.41;4197008;28;5828;-71
2021/12/14 16:44:34;;;;;;;;;;;;;;;4.00;86.89;98112.00;4196344;28;5807;-70
2021/12/14 16:46:58;;;;;;;;;;;;;;;4.02;86.86;98105.69;4211368;28;5774;-71
2021/12/14 16:49:04;;;;;;;;;;;;;;;4.02;87.02;98110.09;4212532;28;5806;-71
2021/12/14 16:51:10;;;;;;;;;;;;;;;4.03;86.69;98120.44;4214013;28;5828;-69
2021/12/14 16:53:13;;;;;;;;;;;;;;;4.05;86.70;98121.16;4206586;28;5796;-69
2021/12/14 16:55:22;;;;;;;;;;;;;;;4.06;86.83;98120.19;4213196;28;5843;-70
2021/12/14 16:57:30;;;;;;;;;;;;;;;4.04;86.63;98118.66;4200905;28;5833;-70
2021/12/14 16:59:39;;;;;;;;;;;;;;;4.02;86.72;98115.34;4201679;28;5803;-70